Terminal Aerodrome Forecast
Issued by NWS

Home | Current Version | Previous Version | Text Only | Print | Product List | Glossary On
Versions: 1 2 3 4 5 6 7 8 9 10 11 12 13 14 15 16 17 18 19 20 21 22
000
FTUS43 KGRR 190500 RRA
TAFLAN
TAF
KLAN 190542Z 1906/2006 01006KT 6SM BR SCT008 OVC015
      TEMPO 1906/1910 4SM BR BKN008
     FM191000 36003KT P6SM OVC018
     FM191200 VRB03KT P6SM SCT040=

USA.gov is the U.S. government's official web portal to all federal, state and local government web resources and services.